In Rescue
 
Open Full Screen Window  High Contrast Mode
Wind Gusting 00 knots
06
May 20, 2019 12:59 PM CDT
Weather Information
Wind Direction
  010 °
Wind Speed
  06 kt (7 mph)
Wind Gust
  00 kt (0 mph)
Altimeter
30.15 in
Visibility
10 SM
Temperature
13° C
55° F
Dewpoint
05° C
41° F
Humidity
59%
1hr Rain Fall
00.00 in.
24hr Rain Fall
00.02 in.
Sky Condition
Clear
VFR

METAR KTKC 201759Z AUTO 01006KT 10SM CLR 13/05 A3015 RMK AO2 TSNO

FAA Disclaimer: The data displayed is for advisory purposes only and is not to be used for flight planning or operations.